createdAt,value
2018-08-10T00:02:01.500Z,95885.22
2018-08-10T00:04:31.575Z,95893.83
2018-08-10T00:07:01.596Z,95915.11
2018-08-10T00:09:31.685Z,95915.66
2018-08-10T00:12:01.671Z,95912.36
2018-08-10T00:14:31.772Z,95932.53
2018-08-10T00:17:01.907Z,95940.90
2018-08-10T00:19:32.000Z,95946.44
2018-08-10T00:22:02.145Z,95944.20
2018-08-10T00:24:32.192Z,95946.64
2018-08-10T00:27:02.286Z,95936.89
2018-08-10T00:29:32.437Z,95955.52
2018-08-10T00:32:02.606Z,95956.00
2018-08-10T00:34:32.754Z,95967.53
2018-08-10T00:37:02.871Z,95967.23
2018-08-10T00:39:33.083Z,95965.95
2018-08-10T00:42:03.259Z,95968.33
2018-08-10T00:44:33.343Z,95970.98
2018-08-10T00:47:03.388Z,95977.75
2018-08-10T00:49:33.470Z,95979.07
2018-08-10T00:52:03.541Z,95978.81
2018-08-10T00:54:33.589Z,95980.44
2018-08-10T00:57:04.944Z,95976.67
2018-08-10T00:59:35.387Z,95982.47
2018-08-10T01:02:05.741Z,95990.31
2018-08-10T01:04:35.771Z,95995.47
2018-08-10T01:07:06.267Z,96007.53
2018-08-10T01:09:36.335Z,96005.81
2018-08-10T01:12:06.382Z,96014.41
2018-08-10T01:14:36.461Z,96010.09
2018-08-10T01:17:06.755Z,96012.73
2018-08-10T01:19:36.843Z,96032.34
2018-08-10T01:22:07.418Z,96025.02
2018-08-10T01:24:37.579Z,96017.42
2018-08-10T01:27:11.683Z,96017.31
2018-08-10T01:29:41.742Z,96000.52
2018-08-10T01:32:11.815Z,96007.94
2018-08-10T01:34:42.433Z,96009.48
2018-08-10T01:37:12.599Z,96013.13
2018-08-10T01:39:43.714Z,96006.84
2018-08-10T01:42:13.802Z,96012.41
2018-08-10T01:44:43.859Z,96027.38
2018-08-10T01:47:14.071Z,96030.62
2018-08-10T01:49:44.112Z,96044.23
2018-08-10T01:52:14.254Z,96036.48
2018-08-10T01:54:44.340Z,96027.42
2018-08-10T01:57:14.728Z,96037.30
2018-08-10T01:59:44.839Z,96044.16
2018-08-10T02:02:14.963Z,96048.23
2018-08-10T02:04:45.141Z,96038.64
2018-08-10T02:07:15.252Z,96045.69
2018-08-10T02:09:45.899Z,96043.01
2018-08-10T02:12:15.943Z,96049.16
2018-08-10T02:14:46.027Z,96038.86
2018-08-10T02:17:16.081Z,96055.70
2018-08-10T02:19:46.219Z,96053.15
2018-08-10T02:22:16.308Z,96047.30
2018-08-10T02:24:46.435Z,96059.60
2018-08-10T02:27:16.519Z,96057.66
2018-08-10T02:29:46.549Z,96067.44
2018-08-10T02:32:16.665Z,96060.94
2018-08-10T02:34:46.743Z,96055.53
2018-08-10T02:37:16.820Z,96065.83
2018-08-10T02:39:46.862Z,96072.50
2018-08-10T02:42:16.987Z,96079.38
2018-08-10T02:44:47.020Z,96080.50
2018-08-10T02:47:21.135Z,96096.00
2018-08-10T02:49:51.314Z,96097.13
2018-08-10T02:52:21.810Z,96103.14
2018-08-10T02:54:52.021Z,96098.08
2018-08-10T02:57:22.344Z,96091.63
2018-08-10T02:59:52.358Z,96107.70
2018-08-10T03:02:22.739Z,96106.57
2018-08-10T03:04:52.818Z,96114.28
2018-08-10T03:07:23.063Z,96111.12
2018-08-10T03:09:53.122Z,96118.69
2018-08-10T03:12:23.354Z,96119.56
2018-08-10T03:14:53.403Z,96119.39
2018-08-10T03:17:23.658Z,96114.80
2018-08-10T03:19:53.662Z,96116.01
2018-08-10T03:22:23.851Z,96124.36
2018-08-10T03:24:53.881Z,96127.41
2018-08-10T03:27:24.038Z,96124.90
2018-08-10T03:29:54.254Z,96134.12
2018-08-10T03:32:24.382Z,96127.79
2018-08-10T03:34:54.433Z,96128.09
2018-08-10T03:37:24.571Z,96135.06
2018-08-10T03:39:54.640Z,96147.14
2018-08-10T03:42:24.727Z,96142.64
2018-08-10T03:44:54.842Z,96145.53
2018-08-10T03:47:24.943Z,96143.79
2018-08-10T03:49:55.038Z,96144.09
2018-08-10T03:52:25.107Z,96145.13
2018-08-10T03:54:55.125Z,96149.09
2018-08-10T03:57:25.196Z,96152.24
2018-08-10T03:59:55.223Z,96149.36
2018-08-10T04:02:25.313Z,96154.16
2018-08-10T04:04:55.355Z,96151.05
2018-08-10T04:07:25.576Z,96154.20
2018-08-10T04:09:55.588Z,96159.30
2018-08-10T04:12:25.715Z,96162.03
2018-08-10T04:14:56.067Z,96165.60
2018-08-10T04:17:27.219Z,96172.51
2018-08-10T04:19:57.235Z,96167.86
2018-08-10T04:22:27.515Z,96180.30
2018-08-10T04:24:57.537Z,96174.81
2018-08-10T04:27:27.806Z,96180.27
2018-08-10T04:29:57.841Z,96192.31
2018-08-10T04:32:28.110Z,96194.18
2018-08-10T04:34:58.124Z,96202.52
2018-08-10T04:37:28.437Z,96211.22
2018-08-10T04:39:58.486Z,96207.77
2018-08-10T04:42:28.736Z,96208.05
2018-08-10T04:44:58.766Z,96208.54
2018-08-10T04:47:29.123Z,96210.45
2018-08-10T04:49:59.169Z,96213.19
2018-08-10T04:52:29.354Z,96219.56
2018-08-10T04:54:59.439Z,96215.30
2018-08-10T04:57:29.667Z,96224.87
2018-08-10T04:59:59.699Z,96224.92
2018-08-10T05:02:29.887Z,96224.21
2018-08-10T05:04:59.935Z,96220.67
2018-08-10T05:07:30.739Z,96226.95
2018-08-10T05:10:00.959Z,96227.36
2018-08-10T05:12:32.607Z,96232.58
2018-08-10T05:15:02.914Z,96233.83
2018-08-10T05:17:33.110Z,96233.48
2018-08-10T05:20:03.165Z,96228.39
2018-08-10T05:22:33.535Z,96234.53
2018-08-10T05:25:03.736Z,96247.75
2018-08-10T05:27:33.911Z,96243.18
2018-08-10T05:30:04.097Z,96250.58
2018-08-10T05:32:34.321Z,96259.55
2018-08-10T05:35:04.631Z,96255.77
2018-08-10T05:37:34.724Z,96262.48
2018-08-10T05:40:05.739Z,96265.01
2018-08-10T05:42:35.969Z,96270.25
2018-08-10T05:45:06.420Z,96271.17
2018-08-10T05:47:36.613Z,96277.52
2018-08-10T05:50:07.478Z,96280.81
2018-08-10T05:52:37.697Z,96281.77
2018-08-10T05:55:08.446Z,96282.20
2018-08-10T05:57:38.750Z,96294.82
2018-08-10T06:00:09.720Z,96286.84
2018-08-10T06:02:39.821Z,96288.58
2018-08-10T06:05:09.907Z,96296.86
2018-08-10T06:07:40.039Z,96297.91
2018-08-10T06:10:11.179Z,96290.48
2018-08-10T06:12:41.318Z,96293.08
2018-08-10T06:15:11.883Z,96296.64
2018-08-10T06:17:42.316Z,96302.45
2018-08-10T06:20:12.810Z,96295.86
2018-08-10T06:22:42.981Z,96305.05
2018-08-10T06:25:13.044Z,96304.53
2018-08-10T06:27:43.158Z,96307.68
2018-08-10T06:30:13.905Z,96302.16
2018-08-10T06:32:44.666Z,96302.50
2018-08-10T06:35:14.744Z,96302.92
2018-08-10T06:37:44.822Z,96315.18
2018-08-10T06:40:14.892Z,96311.37
2018-08-10T06:42:45.007Z,96311.20
2018-08-10T06:45:15.163Z,96312.98
2018-08-10T06:47:45.159Z,96314.14
2018-08-10T06:50:15.322Z,96314.03
2018-08-10T06:52:45.265Z,96314.33
2018-08-10T06:55:15.369Z,96314.80
2018-08-10T06:57:45.423Z,96319.22
2018-08-10T07:00:15.549Z,96315.79
2018-08-10T07:02:45.565Z,96315.25
2018-08-10T07:05:15.585Z,96313.48
2018-08-10T07:07:45.624Z,96314.41
2018-08-10T07:10:15.708Z,96305.10
2018-08-10T07:12:45.705Z,96305.19
2018-08-10T07:15:15.757Z,96307.38
2018-08-10T07:17:46.561Z,96314.77
2018-08-10T07:20:16.971Z,96309.41
2018-08-10T07:22:47.797Z,96306.28
2018-08-10T07:25:17.874Z,96315.78
2018-08-10T07:27:47.945Z,96311.81
2018-08-10T07:30:17.981Z,96309.77
2018-08-10T07:32:47.958Z,96313.02
2018-08-10T07:35:18.014Z,96319.23
2018-08-10T07:37:48.056Z,96317.70
2018-08-10T07:40:18.161Z,96321.23
2018-08-10T07:42:48.448Z,96321.53
2018-08-10T07:45:18.491Z,96317.17
2018-08-10T07:47:48.528Z,96307.48
2018-08-10T07:50:18.672Z,96312.06
2018-08-10T07:52:48.726Z,96313.16
2018-08-10T07:55:18.799Z,96309.12
2018-08-10T07:57:48.811Z,96316.40
2018-08-10T08:00:18.959Z,96312.63
2018-08-10T08:02:49.051Z,96316.44
2018-08-10T08:05:19.176Z,96316.98
2018-08-10T08:07:49.318Z,96318.61
2018-08-10T08:10:19.530Z,96317.54
2018-08-10T08:12:49.569Z,96317.55
2018-08-10T08:15:19.640Z,96323.25
2018-08-10T08:17:49.778Z,96326.23
2018-08-10T08:20:19.941Z,96323.48
2018-08-10T08:22:50.239Z,96323.20
2018-08-10T08:25:20.654Z,96320.72
2018-08-10T08:27:50.695Z,96325.55
2018-08-10T08:30:22.368Z,96322.08
2018-08-10T08:32:52.448Z,96320.14
2018-08-10T08:35:22.462Z,96310.80
2018-08-10T08:37:52.574Z,96320.17
2018-08-10T08:40:25.572Z,96314.06
2018-08-10T08:42:55.743Z,96318.84
2018-08-10T08:46:07.454Z,96316.69
2018-08-10T08:48:39.469Z,96323.25
2018-08-10T08:51:14.621Z,96336.09
2018-08-10T08:53:44.688Z,96335.08
2018-08-10T08:56:16.286Z,96322.91
2018-08-10T08:58:47.821Z,96329.54
2018-08-10T09:01:18.276Z,96328.70
2018-08-10T09:05:01.140Z,96324.12
2018-08-10T09:07:31.692Z,96327.35
2018-08-10T09:10:02.964Z,96319.16
2018-08-10T09:12:33.117Z,96326.33
2018-08-10T09:15:05.412Z,96326.61
2018-08-10T09:17:35.587Z,96320.84
2018-08-10T09:20:07.124Z,96322.05
2018-08-10T09:22:37.654Z,96317.95
2018-08-10T09:25:10.615Z,96318.92
2018-08-10T09:27:40.800Z,96325.44
2018-08-10T09:30:13.547Z,96324.30
2018-08-10T09:32:43.977Z,96317.43
2018-08-10T09:35:14.821Z,96311.31
2018-08-10T09:37:45.076Z,96316.19
2018-08-10T09:40:17.799Z,96315.39
2018-08-10T09:42:47.954Z,96319.86
2018-08-10T09:45:18.823Z,96308.89
2018-08-10T09:47:50.016Z,96316.23
2018-08-10T09:50:20.776Z,96312.91
2018-08-10T09:53:00.102Z,96303.53
2018-08-10T09:55:33.393Z,96320.22
2018-08-10T09:58:06.568Z,96319.86
2018-08-10T10:00:41.729Z,96315.94
2018-08-10T10:03:18.248Z,96310.05
2018-08-10T10:05:49.327Z,96320.20
2018-08-10T10:08:19.865Z,96319.80
2018-08-10T10:10:49.908Z,96309.54
2018-08-10T10:13:20.036Z,96322.06
2018-08-10T10:15:50.117Z,96316.78
2018-08-10T10:18:20.231Z,96304.27
2018-08-10T10:20:50.530Z,96311.19
2018-08-10T10:23:20.735Z,96312.66
2018-08-10T10:25:50.771Z,96312.80
2018-08-10T10:28:21.030Z,96314.77
2018-08-10T10:30:51.073Z,96310.72
2018-08-10T10:33:21.158Z,96308.05
2018-08-10T10:35:51.279Z,96301.02
2018-08-10T10:38:21.354Z,96300.76
2018-08-10T10:40:51.441Z,96302.09
2018-08-10T10:43:21.571Z,96299.98
2018-08-10T10:45:51.635Z,96303.55
2018-08-10T10:48:21.728Z,96314.15
2018-08-10T10:50:51.826Z,96313.59
2018-08-10T10:53:22.051Z,96304.09
2018-08-10T10:55:52.143Z,96304.81
2018-08-10T10:58:22.231Z,96313.48
2018-08-10T11:00:52.398Z,96306.05
2018-08-10T11:03:22.501Z,96300.45
2018-08-10T11:05:52.528Z,96299.81
2018-08-10T11:08:22.670Z,96297.73
2018-08-10T11:10:52.733Z,96297.36
2018-08-10T11:13:22.847Z,96298.68
2018-08-10T11:15:52.917Z,96299.19
2018-08-10T11:18:22.999Z,96293.46
2018-08-10T11:20:53.177Z,96288.92
2018-08-10T11:23:23.275Z,96294.89
2018-08-10T11:25:53.482Z,96287.51
2018-08-10T11:28:23.410Z,96296.61
2018-08-10T11:30:53.550Z,96294.41
2018-08-10T11:33:23.629Z,96292.29
2018-08-10T11:35:53.730Z,96298.65
2018-08-10T11:38:23.820Z,96295.52
2018-08-10T11:40:53.952Z,96299.77
2018-08-10T11:43:23.999Z,96291.66
2018-08-10T11:45:54.128Z,96300.62
2018-08-10T11:48:24.185Z,96291.88
2018-08-10T11:50:54.267Z,96293.17
2018-08-10T11:53:24.392Z,96295.16
2018-08-10T11:55:54.518Z,96295.50
2018-08-10T11:58:25.203Z,96297.66
2018-08-10T12:00:55.379Z,96297.05
2018-08-10T12:03:25.489Z,96292.42
2018-08-10T12:05:55.638Z,96292.97
2018-08-10T12:08:25.745Z,96292.05
2018-08-10T12:10:55.866Z,96284.97
2018-08-10T12:13:25.972Z,96281.90
2018-08-10T12:15:56.095Z,96285.41
2018-08-10T12:18:26.189Z,96282.60
2018-08-10T12:20:56.322Z,96278.44
2018-08-10T12:23:26.450Z,96274.81
2018-08-10T12:25:56.569Z,96286.43
2018-08-10T12:28:26.664Z,96292.47
2018-08-10T12:30:56.775Z,96287.28
2018-08-10T12:33:26.854Z,96280.77
2018-08-10T12:35:56.951Z,96278.39
2018-08-10T12:38:27.101Z,96272.27
2018-08-10T12:40:57.229Z,96276.63
2018-08-10T12:43:27.347Z,96275.70
2018-08-10T12:45:57.478Z,96271.11
2018-08-10T12:48:27.573Z,96268.67
2018-08-10T12:50:57.696Z,96262.67
2018-08-10T12:53:28.272Z,96267.72
2018-08-10T12:55:58.441Z,96261.94
2018-08-10T12:58:28.606Z,96262.18
2018-08-10T13:00:58.757Z,96268.02
2018-08-10T13:03:28.803Z,96262.82
2018-08-10T13:05:58.953Z,96262.40
2018-08-10T13:08:29.048Z,96259.05
2018-08-10T13:10:59.139Z,96261.73
2018-08-10T13:13:29.211Z,96252.70
2018-08-10T13:15:59.698Z,96258.08
2018-08-10T13:18:29.907Z,96254.39
2018-08-10T13:20:59.943Z,96253.79
2018-08-10T13:23:30.019Z,96250.98
2018-08-10T13:26:00.091Z,96250.68
2018-08-10T13:28:30.176Z,96250.34
2018-08-10T13:31:00.742Z,96249.67
2018-08-10T13:33:30.860Z,96251.98
2018-08-10T13:36:00.955Z,96247.29
2018-08-10T13:38:31.334Z,96250.52
2018-08-10T13:41:01.490Z,96249.16
2018-08-10T13:43:31.581Z,96241.97
2018-08-10T13:46:01.678Z,96241.48
2018-08-10T13:48:32.105Z,96237.04
2018-08-10T13:51:02.319Z,96234.81
2018-08-10T13:53:32.398Z,96239.58
2018-08-10T13:56:02.596Z,96234.22
2018-08-10T13:58:32.714Z,96233.14
2018-08-10T14:01:02.843Z,96235.67
2018-08-10T14:03:33.077Z,96232.15
2018-08-10T14:06:03.307Z,96232.20
2018-08-10T14:08:33.538Z,96226.13
2018-08-10T14:11:03.762Z,96227.05
2018-08-10T14:13:33.850Z,96217.60
2018-08-10T14:16:04.085Z,96209.84
2018-08-10T14:18:34.267Z,96211.25
2018-08-10T14:21:04.476Z,96206.23
2018-08-10T14:23:34.580Z,96203.09
2018-08-10T14:26:05.240Z,96208.81
2018-08-10T14:28:35.402Z,96212.20
2018-08-10T14:31:05.570Z,96197.10
2018-08-10T14:33:35.649Z,96196.30
2018-08-10T14:36:07.523Z,96191.22
2018-08-10T14:38:38.110Z,96181.53
2018-08-10T14:41:08.285Z,96188.94
2018-08-10T14:43:38.835Z,96188.39
2018-08-10T14:46:09.649Z,96185.17
2018-08-10T14:48:40.218Z,96188.84
2018-08-10T14:51:10.357Z,96186.61
2018-08-10T14:53:40.946Z,96184.58
2018-08-10T14:56:11.038Z,96185.19
2018-08-10T14:58:41.217Z,96177.67
2018-08-10T15:01:11.365Z,96181.53
2018-08-10T15:03:41.430Z,96171.23
2018-08-10T15:06:11.564Z,96172.00
2018-08-10T15:08:41.756Z,96173.95
2018-08-10T15:11:11.974Z,96168.73
2018-08-10T15:13:42.112Z,96172.85
2018-08-10T15:16:12.309Z,96160.61
2018-08-10T15:18:42.611Z,96161.20
2018-08-10T15:21:12.700Z,96155.75
2018-08-10T15:23:42.829Z,96157.69
2018-08-10T15:26:12.962Z,96151.24
2018-08-10T15:28:43.135Z,96160.09
2018-08-10T15:31:13.323Z,96161.80
2018-08-10T15:33:43.863Z,96149.63
2018-08-10T15:36:13.937Z,96150.89
2018-08-10T15:38:44.061Z,96157.52
2018-08-10T15:41:14.180Z,96157.17
2018-08-10T15:43:45.878Z,96155.92
2018-08-10T15:46:15.972Z,96158.55
2018-08-10T15:48:46.514Z,96158.06
2018-08-10T15:51:16.686Z,96155.45
2018-08-10T15:53:47.032Z,96155.83
2018-08-10T15:56:17.281Z,96157.80
2018-08-10T15:58:47.636Z,96157.21
2018-08-10T16:01:18.351Z,96153.31
2018-08-10T16:03:48.566Z,96151.30
2018-08-10T16:06:18.785Z,96148.24
2018-08-10T16:08:48.941Z,96149.81
2018-08-10T16:11:19.106Z,96141.02
2018-08-10T16:13:49.234Z,96137.30
2018-08-10T16:16:19.474Z,96129.34
2018-08-10T16:18:49.594Z,96127.49
2018-08-10T16:21:19.751Z,96126.80
2018-08-10T16:23:49.945Z,96125.36
2018-08-10T16:26:20.064Z,96122.16
2018-08-10T16:28:50.222Z,96129.80
2018-08-10T16:31:21.023Z,96121.28
2018-08-10T16:33:51.789Z,96121.79
2018-08-10T16:36:21.921Z,96124.00
2018-08-10T16:38:52.772Z,96122.64
2018-08-10T16:41:22.973Z,96118.19
2018-08-10T16:43:53.151Z,96121.22
2018-08-10T16:46:23.328Z,96124.72
2018-08-10T16:48:53.500Z,96124.72
2018-08-10T16:51:23.650Z,96128.30
2018-08-10T16:53:53.764Z,96123.02
2018-08-10T16:56:23.835Z,96115.80
2018-08-10T16:58:53.998Z,96117.00
2018-08-10T17:01:24.063Z,96118.02
2018-08-10T17:03:54.130Z,96123.09
2018-08-10T17:06:24.163Z,96121.06
2018-08-10T17:08:54.475Z,96121.23
2018-08-10T17:11:26.081Z,96117.26
2018-08-10T17:13:57.181Z,96118.69
2018-08-10T17:16:27.363Z,96119.12
2018-08-10T17:18:57.505Z,96123.32
2018-08-10T17:21:27.623Z,96120.39
2018-08-10T17:23:57.862Z,96125.11
2018-08-10T17:26:27.929Z,96117.53
2018-08-10T17:28:58.149Z,96116.31
2018-08-10T17:31:28.292Z,96110.98
2018-08-10T17:33:58.382Z,96117.81
2018-08-10T17:36:28.428Z,96118.14
2018-08-10T17:38:58.560Z,96115.73
2018-08-10T17:41:28.608Z,96116.25
2018-08-10T17:43:58.703Z,96118.45
2018-08-10T17:46:28.807Z,96122.76
2018-08-10T17:48:58.941Z,96117.41
2018-08-10T17:51:29.154Z,96117.14
2018-08-10T17:53:59.542Z,96118.22
2018-08-10T17:56:30.526Z,96112.88
2018-08-10T17:59:00.926Z,96118.84
2018-08-10T18:01:30.974Z,96124.62
2018-08-10T18:04:01.035Z,96117.05
2018-08-10T18:06:31.089Z,96118.98
2018-08-10T18:09:01.224Z,96125.55
2018-08-10T18:11:31.307Z,96128.30
2018-08-10T18:14:01.395Z,96124.88
2018-08-10T18:16:31.535Z,96129.54
2018-08-10T18:19:01.949Z,96139.67
2018-08-10T18:21:32.082Z,96132.70
2018-08-10T18:24:03.174Z,96137.17
2018-08-10T18:26:33.275Z,96134.11
2018-08-10T18:29:03.371Z,96135.58
2018-08-10T18:31:33.446Z,96138.94
2018-08-10T18:34:03.598Z,96140.44
2018-08-10T18:36:33.641Z,96146.77
2018-08-10T18:39:04.667Z,96144.41
2018-08-10T18:41:34.749Z,96142.54
2018-08-10T18:44:05.118Z,96147.99
2018-08-10T18:46:36.497Z,96155.03
2018-08-10T18:49:06.850Z,96159.37
2018-08-10T18:51:38.023Z,96150.72
2018-08-10T18:54:08.360Z,96148.56
2018-08-10T18:56:39.476Z,96152.08
2018-08-10T18:59:09.665Z,96159.06
2018-08-10T19:01:39.865Z,96166.37
2018-08-10T19:04:10.060Z,96162.80
2018-08-10T19:06:40.423Z,96169.83
2018-08-10T19:09:11.773Z,96170.59
2018-08-10T19:11:41.898Z,96175.18
2018-08-10T19:14:12.021Z,96179.20
2018-08-10T19:16:42.140Z,96182.38
2018-08-10T19:19:12.374Z,96182.09
2018-08-10T19:21:42.538Z,96185.83
2018-08-10T19:24:12.630Z,96187.70
2018-08-10T19:26:42.772Z,96187.70
2018-08-10T19:29:12.939Z,96183.11
2018-08-10T19:31:43.127Z,96181.23
2018-08-10T19:34:13.220Z,96182.80
2018-08-10T19:36:43.376Z,96182.48
2018-08-10T19:39:13.470Z,96181.91
2018-08-10T19:41:43.680Z,96169.22
2018-08-10T19:44:13.759Z,96182.72
2018-08-10T19:46:43.972Z,96184.30
2018-08-10T19:49:13.986Z,96179.72
2018-08-10T19:51:44.072Z,96182.42
2018-08-10T19:54:14.148Z,96188.08
2018-08-10T19:56:44.343Z,96189.12
2018-08-10T19:59:14.390Z,96180.77
2018-08-10T20:01:44.537Z,96182.09
2018-08-10T20:04:14.602Z,96178.58
2018-08-10T20:06:44.683Z,96175.84
2018-08-10T20:09:14.760Z,96185.03
2018-08-10T20:11:44.844Z,96188.50
2018-08-10T20:14:15.033Z,96185.50
2018-08-10T20:16:45.171Z,96200.06
2018-08-10T20:19:15.236Z,96191.14
2018-08-10T20:21:45.318Z,96185.48
2018-08-10T20:24:15.452Z,96190.86
2018-08-10T20:26:45.614Z,96142.15
2018-08-10T20:29:15.679Z,96187.84
2018-08-10T20:31:45.810Z,96177.91
2018-08-10T20:34:15.965Z,96180.86
2018-08-10T20:36:46.061Z,96178.44
2018-08-10T20:39:16.147Z,96175.48
2018-08-10T20:41:46.212Z,96181.91
2018-08-10T20:44:16.308Z,96178.38
2018-08-10T20:46:46.364Z,96179.15
2018-08-10T20:49:16.539Z,96182.36
2018-08-10T20:51:46.651Z,96179.86
2018-08-10T20:54:17.636Z,96178.49
2018-08-10T20:56:47.750Z,96180.61
2018-08-10T20:59:17.819Z,96177.34
2018-08-10T21:01:48.065Z,96180.25
2018-08-10T21:04:18.281Z,96169.42
2018-08-10T21:06:48.366Z,96162.88
2018-08-10T21:09:18.467Z,96159.61
2018-08-10T21:11:48.642Z,96169.48
2018-08-10T21:14:18.729Z,96177.23
2018-08-10T21:16:48.822Z,96170.83
2018-08-10T21:19:18.874Z,96173.78
2018-08-10T21:21:49.022Z,96174.34
2018-08-10T21:24:19.102Z,96167.29
2018-08-10T21:26:49.247Z,96175.89
2018-08-10T21:29:19.347Z,96180.16
2018-08-10T21:31:50.385Z,96176.92
2018-08-10T21:34:20.495Z,96170.98
2018-08-10T21:36:50.638Z,96175.78
2018-08-10T21:39:20.720Z,96176.86
2018-08-10T21:41:50.839Z,96179.00
2018-08-10T21:44:20.905Z,96180.25
2018-08-10T21:46:50.990Z,96181.02
2018-08-10T21:49:21.115Z,96179.17
2018-08-10T21:51:51.231Z,96190.49
2018-08-10T21:54:21.319Z,96176.98
2018-08-10T21:56:51.418Z,96187.16
2018-08-10T21:59:21.614Z,96188.99
2018-08-10T22:01:51.853Z,96187.34
2018-08-10T22:04:22.000Z,96191.39
2018-08-10T22:06:52.098Z,96187.61
2018-08-10T22:09:22.251Z,96185.70
2018-08-10T22:11:52.307Z,96186.99
2018-08-10T22:14:27.494Z,96194.53
2018-08-10T22:17:02.622Z,96195.88
2018-08-10T22:19:32.746Z,96197.19
2018-08-10T22:22:02.807Z,96194.36
2018-08-10T22:24:32.936Z,96194.85
2018-08-10T22:27:03.066Z,96191.83
2018-08-10T22:29:33.256Z,96196.58
2018-08-10T22:32:03.380Z,96199.53
2018-08-10T22:34:33.486Z,96197.63
2018-08-10T22:37:03.541Z,96196.05
2018-08-10T22:39:33.633Z,96188.52
2018-08-10T22:42:03.749Z,96195.80
2018-08-10T22:44:33.855Z,96196.77
2018-08-10T22:47:03.963Z,96192.92
2018-08-10T22:49:34.007Z,96198.26
2018-08-10T22:52:04.085Z,96195.84
2018-08-10T22:54:34.187Z,96193.89
2018-08-10T22:57:04.319Z,96200.09
2018-08-10T22:59:34.402Z,96196.28
2018-08-10T23:02:04.639Z,96193.22
2018-08-10T23:04:34.760Z,96186.72
2018-08-10T23:07:04.799Z,96198.55
2018-08-10T23:09:34.942Z,96188.41
2018-08-10T23:12:05.066Z,96193.03
2018-08-10T23:14:35.277Z,96192.17
2018-08-10T23:17:05.294Z,96190.78
2018-08-10T23:19:35.439Z,96194.86
2018-08-10T23:22:05.588Z,96190.48
2018-08-10T23:24:35.702Z,96192.58
2018-08-10T23:27:05.881Z,96188.06
2018-08-10T23:29:36.068Z,96183.77
2018-08-10T23:32:06.213Z,96183.73
2018-08-10T23:34:36.323Z,96182.61
2018-08-10T23:37:06.505Z,96176.63
2018-08-10T23:39:36.633Z,96183.91
2018-08-10T23:42:06.706Z,96186.08
2018-08-10T23:44:36.838Z,96180.70
2018-08-10T23:47:07.197Z,96186.38
2018-08-10T23:49:37.326Z,96182.05
2018-08-10T23:52:07.505Z,96183.16
2018-08-10T23:54:37.591Z,96179.14
2018-08-10T23:57:07.753Z,96183.95
2018-08-10T23:59:37.924Z,96172.90
